sensor_id;sensor_type;location;lat;lon;timestamp;P1;durP1;ratioP1;P2;durP2;ratioP2
54408;SDS011;40315;48.620;9.828;2023-01-25T00:00:28;17.95;;;9.55;;
54408;SDS011;40315;48.620;9.828;2023-01-25T00:02:56;16.23;;;9.17;;
54408;SDS011;40315;48.620;9.828;2023-01-25T00:05:23;15.57;;;8.90;;
54408;SDS011;40315;48.620;9.828;2023-01-25T00:07:50;15.70;;;9.27;;
54408;SDS011;40315;48.620;9.828;2023-01-25T00:10:17;15.13;;;8.70;;
54408;SDS011;40315;48.620;9.828;2023-01-25T00:12:45;14.77;;;8.33;;
54408;SDS011;40315;48.620;9.828;2023-01-25T00:15:12;17.13;;;9.13;;
54408;SDS011;40315;48.620;9.828;2023-01-25T00:17:41;14.30;;;8.20;;
54408;SDS011;40315;48.620;9.828;2023-01-25T00:20:08;14.07;;;7.93;;
54408;SDS011;40315;48.620;9.828;2023-01-25T00:22:36;13.47;;;7.77;;
54408;SDS011;40315;48.620;9.828;2023-01-25T00:25:03;12.98;;;7.82;;
54408;SDS011;40315;48.620;9.828;2023-01-25T00:27:30;13.27;;;8.13;;
54408;SDS011;40315;48.620;9.828;2023-01-25T00:30:00;13.48;;;8.30;;
54408;SDS011;40315;48.620;9.828;2023-01-25T00:32:31;13.68;;;7.88;;
54408;SDS011;40315;48.620;9.828;2023-01-25T00:35:07;13.98;;;7.95;;
54408;SDS011;40315;48.620;9.828;2023-01-25T00:37:37;14.45;;;9.07;;
54408;SDS011;40315;48.620;9.828;2023-01-25T00:40:08;13.97;;;8.40;;
54408;SDS011;40315;48.620;9.828;2023-01-25T00:42:37;12.85;;;8.10;;
54408;SDS011;40315;48.620;9.828;2023-01-25T00:45:04;14.40;;;8.82;;
54408;SDS011;40315;48.620;9.828;2023-01-25T00:47:32;14.02;;;7.93;;
54408;SDS011;40315;48.620;9.828;2023-01-25T00:50:02;14.45;;;8.32;;
54408;SDS011;40315;48.620;9.828;2023-01-25T00:52:32;15.93;;;9.07;;
54408;SDS011;40315;48.620;9.828;2023-01-25T00:54:59;15.37;;;8.90;;
54408;SDS011;40315;48.620;9.828;2023-01-25T00:57:26;14.90;;;9.07;;
54408;SDS011;40315;48.620;9.828;2023-01-25T00:59:53;14.25;;;8.95;;
54408;SDS011;40315;48.620;9.828;2023-01-25T01:02:20;15.83;;;8.97;;
54408;SDS011;40315;48.620;9.828;2023-01-25T01:04:47;15.30;;;9.10;;
54408;SDS011;40315;48.620;9.828;2023-01-25T01:07:14;16.27;;;9.70;;
54408;SDS011;40315;48.620;9.828;2023-01-25T01:09:45;13.60;;;8.47;;
54408;SDS011;40315;48.620;9.828;2023-01-25T01:12:13;17.80;;;10.10;;
54408;SDS011;40315;48.620;9.828;2023-01-25T01:14:40;13.20;;;8.57;;
54408;SDS011;40315;48.620;9.828;2023-01-25T01:17:07;15.80;;;9.27;;
54408;SDS011;40315;48.620;9.828;2023-01-25T01:19:34;17.70;;;8.83;;
54408;SDS011;40315;48.620;9.828;2023-01-25T01:22:01;16.90;;;9.50;;
54408;SDS011;40315;48.620;9.828;2023-01-25T01:24:29;17.47;;;9.47;;
54408;SDS011;40315;48.620;9.828;2023-01-25T01:26:59;17.30;;;9.83;;
54408;SDS011;40315;48.620;9.828;2023-01-25T01:29:27;18.93;;;10.03;;
54408;SDS011;40315;48.620;9.828;2023-01-25T01:31:54;17.27;;;9.33;;
54408;SDS011;40315;48.620;9.828;2023-01-25T01:34:23;16.33;;;9.23;;
54408;SDS011;40315;48.620;9.828;2023-01-25T01:36:51;17.00;;;9.80;;
54408;SDS011;40315;48.620;9.828;2023-01-25T01:39:18;16.67;;;9.67;;
54408;SDS011;40315;48.620;9.828;2023-01-25T01:41:45;15.77;;;9.50;;
54408;SDS011;40315;48.620;9.828;2023-01-25T01:50:43;17.47;;;9.17;;
54408;SDS011;40315;48.620;9.828;2023-01-25T01:53:10;18.30;;;10.17;;
54408;SDS011;40315;48.620;9.828;2023-01-25T01:55:38;17.47;;;9.63;;
54408;SDS011;40315;48.620;9.828;2023-01-25T01:58:05;19.13;;;10.10;;
54408;SDS011;40315;48.620;9.828;2023-01-25T02:03:16;20.43;;;10.77;;
54408;SDS011;40315;48.620;9.828;2023-01-25T02:05:46;17.67;;;10.63;;
54408;SDS011;40315;48.620;9.828;2023-01-25T02:08:19;18.77;;;10.67;;
54408;SDS011;40315;48.620;9.828;2023-01-25T02:10:46;18.57;;;10.50;;
54408;SDS011;40315;48.620;9.828;2023-01-25T02:13:15;18.73;;;10.53;;
54408;SDS011;40315;48.620;9.828;2023-01-25T02:15:44;19.70;;;10.10;;
54408;SDS011;40315;48.620;9.828;2023-01-25T02:18:13;19.67;;;10.43;;
54408;SDS011;40315;48.620;9.828;2023-01-25T02:20:43;19.10;;;10.87;;
54408;SDS011;40315;48.620;9.828;2023-01-25T02:23:13;19.38;;;10.85;;
54408;SDS011;40315;48.620;9.828;2023-01-25T02:25:46;18.07;;;11.20;;
54408;SDS011;40315;48.620;9.828;2023-01-25T02:28:14;20.00;;;10.37;;
54408;SDS011;40315;48.620;9.828;2023-01-25T02:30:45;20.77;;;10.57;;
54408;SDS011;40315;48.620;9.828;2023-01-25T02:33:14;19.33;;;10.13;;
54408;SDS011;40315;48.620;9.828;2023-01-25T02:35:42;19.70;;;10.43;;
54408;SDS011;40315;48.620;9.828;2023-01-25T02:38:12;19.63;;;11.10;;
54408;SDS011;40315;48.620;9.828;2023-01-25T02:40:42;21.53;;;10.53;;
54408;SDS011;40315;48.620;9.828;2023-01-25T02:43:14;17.63;;;9.87;;
54408;SDS011;40315;48.620;9.828;2023-01-25T02:45:43;19.83;;;11.03;;
54408;SDS011;40315;48.620;9.828;2023-01-25T02:48:17;20.57;;;10.93;;
54408;SDS011;40315;48.620;9.828;2023-01-25T02:50:44;19.47;;;10.60;;
54408;SDS011;40315;48.620;9.828;2023-01-25T02:53:11;16.93;;;9.47;;
54408;SDS011;40315;48.620;9.828;2023-01-25T02:55:38;19.03;;;9.53;;
54408;SDS011;40315;48.620;9.828;2023-01-25T02:58:07;18.37;;;10.00;;
54408;SDS011;40315;48.620;9.828;2023-01-25T03:00:36;16.67;;;9.33;;
54408;SDS011;40315;48.620;9.828;2023-01-25T03:03:03;17.67;;;10.10;;
54408;SDS011;40315;48.620;9.828;2023-01-25T03:05:30;18.83;;;9.33;;
54408;SDS011;40315;48.620;9.828;2023-01-25T03:07:57;16.67;;;10.00;;
54408;SDS011;40315;48.620;9.828;2023-01-25T03:10:24;16.00;;;9.27;;
54408;SDS011;40315;48.620;9.828;2023-01-25T03:12:54;17.90;;;9.93;;
54408;SDS011;40315;48.620;9.828;2023-01-25T03:15:21;17.17;;;9.07;;
54408;SDS011;40315;48.620;9.828;2023-01-25T03:17:49;19.83;;;10.13;;
54408;SDS011;40315;48.620;9.828;2023-01-25T03:20:17;16.73;;;9.30;;
54408;SDS011;40315;48.620;9.828;2023-01-25T03:22:45;17.77;;;9.43;;
54408;SDS011;40315;48.620;9.828;2023-01-25T03:25:12;18.13;;;10.43;;
54408;SDS011;40315;48.620;9.828;2023-01-25T03:27:49;19.27;;;9.47;;
54408;SDS011;40315;48.620;9.828;2023-01-25T03:30:18;19.73;;;10.40;;
54408;SDS011;40315;48.620;9.828;2023-01-25T03:32:45;18.73;;;9.83;;
54408;SDS011;40315;48.620;9.828;2023-01-25T03:35:18;20.20;;;10.50;;
54408;SDS011;40315;48.620;9.828;2023-01-25T03:37:46;19.97;;;10.20;;
54408;SDS011;40315;48.620;9.828;2023-01-25T03:40:13;19.97;;;10.17;;
54408;SDS011;40315;48.620;9.828;2023-01-25T03:42:45;18.60;;;9.77;;
54408;SDS011;40315;48.620;9.828;2023-01-25T03:45:12;19.13;;;10.10;;
54408;SDS011;40315;48.620;9.828;2023-01-25T03:47:39;18.80;;;9.53;;
54408;SDS011;40315;48.620;9.828;2023-01-25T03:50:08;21.93;;;10.27;;
54408;SDS011;40315;48.620;9.828;2023-01-25T03:52:40;19.40;;;9.77;;
54408;SDS011;40315;48.620;9.828;2023-01-25T03:55:12;20.27;;;10.53;;
54408;SDS011;40315;48.620;9.828;2023-01-25T03:57:41;21.00;;;10.87;;
54408;SDS011;40315;48.620;9.828;2023-01-25T04:00:09;21.23;;;10.23;;
54408;SDS011;40315;48.620;9.828;2023-01-25T04:02:47;19.43;;;10.17;;
54408;SDS011;40315;48.620;9.828;2023-01-25T04:05:17;21.30;;;11.37;;
54408;SDS011;40315;48.620;9.828;2023-01-25T04:07:46;19.37;;;11.00;;
54408;SDS011;40315;48.620;9.828;2023-01-25T04:10:20;21.97;;;11.33;;
54408;SDS011;40315;48.620;9.828;2023-01-25T04:12:47;22.57;;;11.60;;
54408;SDS011;40315;48.620;9.828;2023-01-25T04:15:15;22.27;;;11.40;;
54408;SDS011;40315;48.620;9.828;2023-01-25T04:17:42;17.97;;;10.67;;
54408;SDS011;40315;48.620;9.828;2023-01-25T04:20:15;19.90;;;10.93;;
54408;SDS011;40315;48.620;9.828;2023-01-25T04:22:43;17.77;;;10.10;;
54408;SDS011;40315;48.620;9.828;2023-01-25T04:25:11;19.43;;;10.33;;
54408;SDS011;40315;48.620;9.828;2023-01-25T04:27:45;17.90;;;9.80;;
54408;SDS011;40315;48.620;9.828;2023-01-25T04:30:14;22.03;;;11.20;;
54408;SDS011;40315;48.620;9.828;2023-01-25T04:32:43;19.80;;;10.05;;
54408;SDS011;40315;48.620;9.828;2023-01-25T04:35:29;18.27;;;9.67;;
54408;SDS011;40315;48.620;9.828;2023-01-25T04:37:58;16.40;;;9.80;;
54408;SDS011;40315;48.620;9.828;2023-01-25T04:40:34;18.53;;;9.70;;
54408;SDS011;40315;48.620;9.828;2023-01-25T04:43:01;20.17;;;10.50;;
54408;SDS011;40315;48.620;9.828;2023-01-25T04:45:30;20.83;;;9.93;;
54408;SDS011;40315;48.620;9.828;2023-01-25T04:48:04;19.40;;;10.27;;
54408;SDS011;40315;48.620;9.828;2023-01-25T04:50:45;17.80;;;10.10;;
54408;SDS011;40315;48.620;9.828;2023-01-25T04:53:54;19.03;;;9.60;;
54408;SDS011;40315;48.620;9.828;2023-01-25T05:07:49;16.87;;;8.90;;
54408;SDS011;40315;48.620;9.828;2023-01-25T05:10:17;20.90;;;9.93;;
54408;SDS011;40315;48.620;9.828;2023-01-25T05:13:04;20.93;;;10.73;;
54408;SDS011;40315;48.620;9.828;2023-01-25T05:15:33;17.17;;;9.93;;
54408;SDS011;40315;48.620;9.828;2023-01-25T05:18:02;20.57;;;10.17;;
54408;SDS011;40315;48.620;9.828;2023-01-25T05:20:31;19.27;;;11.00;;
54408;SDS011;40315;48.620;9.828;2023-01-25T05:23:01;21.30;;;10.67;;
54408;SDS011;40315;48.620;9.828;2023-01-25T05:25:29;20.83;;;10.73;;
54408;SDS011;40315;48.620;9.828;2023-01-25T05:28:17;20.00;;;10.00;;
54408;SDS011;40315;48.620;9.828;2023-01-25T05:31:09;18.97;;;9.90;;
54408;SDS011;40315;48.620;9.828;2023-01-25T05:33:37;21.43;;;10.80;;
54408;SDS011;40315;48.620;9.828;2023-01-25T05:36:04;20.27;;;10.70;;
54408;SDS011;40315;48.620;9.828;2023-01-25T05:38:36;20.57;;;10.80;;
54408;SDS011;40315;48.620;9.828;2023-01-25T05:41:07;20.87;;;10.77;;
54408;SDS011;40315;48.620;9.828;2023-01-25T05:43:35;22.53;;;10.70;;
54408;SDS011;40315;48.620;9.828;2023-01-25T05:46:04;21.60;;;10.30;;
54408;SDS011;40315;48.620;9.828;2023-01-25T05:48:32;21.27;;;11.33;;
54408;SDS011;40315;48.620;9.828;2023-01-25T05:50:59;21.37;;;10.70;;
54408;SDS011;40315;48.620;9.828;2023-01-25T05:53:29;22.30;;;11.10;;
54408;SDS011;40315;48.620;9.828;2023-01-25T05:56:03;21.73;;;10.83;;
54408;SDS011;40315;48.620;9.828;2023-01-25T05:58:31;22.37;;;10.47;;
54408;SDS011;40315;48.620;9.828;2023-01-25T06:00:58;23.37;;;11.53;;
54408;SDS011;40315;48.620;9.828;2023-01-25T06:03:34;23.77;;;11.97;;
54408;SDS011;40315;48.620;9.828;2023-01-25T06:06:01;23.43;;;12.33;;
54408;SDS011;40315;48.620;9.828;2023-01-25T06:08:30;22.10;;;11.23;;
54408;SDS011;40315;48.620;9.828;2023-01-25T06:10:57;23.70;;;12.00;;
54408;SDS011;40315;48.620;9.828;2023-01-25T06:13:28;22.97;;;11.57;;
54408;SDS011;40315;48.620;9.828;2023-01-25T06:15:56;26.77;;;12.77;;
54408;SDS011;40315;48.620;9.828;2023-01-25T06:18:42;22.47;;;11.30;;
54408;SDS011;40315;48.620;9.828;2023-01-25T06:21:29;22.33;;;11.93;;
54408;SDS011;40315;48.620;9.828;2023-01-25T06:23:56;22.53;;;12.20;;
54408;SDS011;40315;48.620;9.828;2023-01-25T06:26:23;24.17;;;11.10;;
54408;SDS011;40315;48.620;9.828;2023-01-25T06:28:52;24.73;;;11.30;;
54408;SDS011;40315;48.620;9.828;2023-01-25T06:31:21;24.13;;;12.20;;
54408;SDS011;40315;48.620;9.828;2023-01-25T06:33:48;24.03;;;11.40;;
54408;SDS011;40315;48.620;9.828;2023-01-25T06:36:19;24.50;;;11.43;;
54408;SDS011;40315;48.620;9.828;2023-01-25T06:38:47;28.63;;;12.10;;
54408;SDS011;40315;48.620;9.828;2023-01-25T06:41:15;23.33;;;11.70;;
54408;SDS011;40315;48.620;9.828;2023-01-25T06:43:42;22.10;;;10.87;;
54408;SDS011;40315;48.620;9.828;2023-01-25T06:46:11;25.63;;;11.37;;
54408;SDS011;40315;48.620;9.828;2023-01-25T06:48:38;25.27;;;13.10;;
54408;SDS011;40315;48.620;9.828;2023-01-25T06:51:08;25.87;;;11.30;;
54408;SDS011;40315;48.620;9.828;2023-01-25T06:53:37;23.77;;;10.93;;
54408;SDS011;40315;48.620;9.828;2023-01-25T06:56:06;25.00;;;11.03;;
54408;SDS011;40315;48.620;9.828;2023-01-25T06:58:35;22.93;;;10.90;;
54408;SDS011;40315;48.620;9.828;2023-01-25T07:01:03;20.67;;;11.00;;
54408;SDS011;40315;48.620;9.828;2023-01-25T07:03:32;29.60;;;11.90;;
54408;SDS011;40315;48.620;9.828;2023-01-25T07:06:00;19.87;;;10.37;;
54408;SDS011;40315;48.620;9.828;2023-01-25T07:08:28;21.57;;;11.27;;
54408;SDS011;40315;48.620;9.828;2023-01-25T07:10:56;19.70;;;10.63;;
54408;SDS011;40315;48.620;9.828;2023-01-25T07:13:24;24.27;;;11.57;;
54408;SDS011;40315;48.620;9.828;2023-01-25T07:15:53;23.17;;;10.50;;
54408;SDS011;40315;48.620;9.828;2023-01-25T07:18:20;22.17;;;11.43;;
54408;SDS011;40315;48.620;9.828;2023-01-25T07:20:49;24.30;;;11.53;;
54408;SDS011;40315;48.620;9.828;2023-01-25T07:23:16;22.40;;;10.70;;
54408;SDS011;40315;48.620;9.828;2023-01-25T07:25:44;19.77;;;9.97;;
54408;SDS011;40315;48.620;9.828;2023-01-25T07:28:12;20.23;;;10.50;;
54408;SDS011;40315;48.620;9.828;2023-01-25T07:30:39;21.10;;;10.80;;
54408;SDS011;40315;48.620;9.828;2023-01-25T07:33:08;21.80;;;10.03;;
54408;SDS011;40315;48.620;9.828;2023-01-25T07:35:36;19.33;;;9.37;;
54408;SDS011;40315;48.620;9.828;2023-01-25T07:38:04;21.53;;;9.83;;
54408;SDS011;40315;48.620;9.828;2023-01-25T07:40:32;18.97;;;9.37;;
54408;SDS011;40315;48.620;9.828;2023-01-25T07:42:59;18.60;;;10.10;;
54408;SDS011;40315;48.620;9.828;2023-01-25T07:45:28;23.40;;;10.93;;
54408;SDS011;40315;48.620;9.828;2023-01-25T07:47:56;20.90;;;9.97;;
54408;SDS011;40315;48.620;9.828;2023-01-25T07:50:24;21.63;;;10.33;;
54408;SDS011;40315;48.620;9.828;2023-01-25T07:52:51;20.53;;;10.10;;
54408;SDS011;40315;48.620;9.828;2023-01-25T07:55:20;18.13;;;8.80;;
54408;SDS011;40315;48.620;9.828;2023-01-25T07:57:47;17.43;;;8.47;;
54408;SDS011;40315;48.620;9.828;2023-01-25T08:00:15;17.27;;;8.73;;
54408;SDS011;40315;48.620;9.828;2023-01-25T08:02:42;16.20;;;8.47;;
54408;SDS011;40315;48.620;9.828;2023-01-25T08:05:09;19.53;;;8.70;;
54408;SDS011;40315;48.620;9.828;2023-01-25T08:07:36;17.40;;;8.77;;
54408;SDS011;40315;48.620;9.828;2023-01-25T08:10:03;16.53;;;7.93;;
54408;SDS011;40315;48.620;9.828;2023-01-25T08:12:33;16.77;;;9.13;;
54408;SDS011;40315;48.620;9.828;2023-01-25T08:15:00;17.47;;;8.10;;
54408;SDS011;40315;48.620;9.828;2023-01-25T08:17:27;16.13;;;7.53;;
54408;SDS011;40315;48.620;9.828;2023-01-25T08:19:57;18.20;;;7.80;;
54408;SDS011;40315;48.620;9.828;2023-01-25T08:22:26;17.40;;;8.47;;
54408;SDS011;40315;48.620;9.828;2023-01-25T08:24:53;21.10;;;8.87;;
54408;SDS011;40315;48.620;9.828;2023-01-25T08:27:20;17.40;;;8.03;;
54408;SDS011;40315;48.620;9.828;2023-01-25T08:29:49;17.80;;;8.90;;
54408;SDS011;40315;48.620;9.828;2023-01-25T08:32:20;14.93;;;6.97;;
54408;SDS011;40315;48.620;9.828;2023-01-25T08:34:47;18.70;;;7.87;;
54408;SDS011;40315;48.620;9.828;2023-01-25T08:37:14;15.20;;;7.53;;
54408;SDS011;40315;48.620;9.828;2023-01-25T08:39:41;15.07;;;7.27;;
54408;SDS011;40315;48.620;9.828;2023-01-25T08:42:08;16.13;;;7.73;;
54408;SDS011;40315;48.620;9.828;2023-01-25T08:44:35;13.70;;;7.03;;
54408;SDS011;40315;48.620;9.828;2023-01-25T08:47:03;15.90;;;7.30;;
54408;SDS011;40315;48.620;9.828;2023-01-25T08:49:31;15.10;;;7.50;;
54408;SDS011;40315;48.620;9.828;2023-01-25T08:51:59;16.47;;;9.10;;
54408;SDS011;40315;48.620;9.828;2023-01-25T08:54:26;17.40;;;8.63;;
54408;SDS011;40315;48.620;9.828;2023-01-25T08:56:59;17.83;;;8.47;;
54408;SDS011;40315;48.620;9.828;2023-01-25T08:59:30;15.57;;;8.23;;
54408;SDS011;40315;48.620;9.828;2023-01-25T09:01:59;15.50;;;7.20;;
54408;SDS011;40315;48.620;9.828;2023-01-25T09:04:27;13.57;;;7.17;;
54408;SDS011;40315;48.620;9.828;2023-01-25T09:06:58;16.33;;;7.40;;
54408;SDS011;40315;48.620;9.828;2023-01-25T09:09:25;14.30;;;6.97;;
54408;SDS011;40315;48.620;9.828;2023-01-25T09:11:54;13.30;;;6.27;;
54408;SDS011;40315;48.620;9.828;2023-01-25T09:14:21;16.67;;;8.03;;
54408;SDS011;40315;48.620;9.828;2023-01-25T09:16:48;17.47;;;7.73;;
54408;SDS011;40315;48.620;9.828;2023-01-25T09:19:17;17.63;;;7.27;;
54408;SDS011;40315;48.620;9.828;2023-01-25T09:21:45;16.87;;;8.13;;
54408;SDS011;40315;48.620;9.828;2023-01-25T09:24:13;18.77;;;8.20;;
54408;SDS011;40315;48.620;9.828;2023-01-25T09:26:41;16.40;;;8.23;;
54408;SDS011;40315;48.620;9.828;2023-01-25T09:29:09;17.20;;;8.80;;
54408;SDS011;40315;48.620;9.828;2023-01-25T09:31:39;16.50;;;7.50;;
54408;SDS011;40315;48.620;9.828;2023-01-25T09:36:40;17.87;;;8.27;;
54408;SDS011;40315;48.620;9.828;2023-01-25T09:39:09;17.07;;;7.93;;
54408;SDS011;40315;48.620;9.828;2023-01-25T09:44:53;18.27;;;7.97;;
54408;SDS011;40315;48.620;9.828;2023-01-25T09:47:34;16.03;;;8.40;;
54408;SDS011;40315;48.620;9.828;2023-01-25T09:53:24;17.87;;;8.63;;
54408;SDS011;40315;48.620;9.828;2023-01-25T09:55:58;17.97;;;8.33;;
54408;SDS011;40315;48.620;9.828;2023-01-25T09:58:30;19.20;;;8.20;;
54408;SDS011;40315;48.620;9.828;2023-01-25T10:03:49;20.03;;;7.93;;
54408;SDS011;40315;48.620;9.828;2023-01-25T10:06:27;17.47;;;8.63;;
54408;SDS011;40315;48.620;9.828;2023-01-25T10:09:02;17.87;;;8.30;;
54408;SDS011;40315;48.620;9.828;2023-01-25T10:11:39;18.90;;;8.57;;
54408;SDS011;40315;48.620;9.828;2023-01-25T10:14:10;17.93;;;8.40;;
54408;SDS011;40315;48.620;9.828;2023-01-25T10:16:42;15.98;;;8.55;;
54408;SDS011;40315;48.620;9.828;2023-01-25T10:19:24;17.53;;;8.23;;
54408;SDS011;40315;48.620;9.828;2023-01-25T10:21:59;14.33;;;7.27;;
54408;SDS011;40315;48.620;9.828;2023-01-25T10:27:31;19.53;;;8.97;;
54408;SDS011;40315;48.620;9.828;2023-01-25T10:30:19;15.33;;;7.53;;
54408;SDS011;40315;48.620;9.828;2023-01-25T10:32:50;15.20;;;7.90;;
54408;SDS011;40315;48.620;9.828;2023-01-25T10:35:21;18.45;;;7.70;;
54408;SDS011;40315;48.620;9.828;2023-01-25T10:37:51;15.80;;;7.83;;
54408;SDS011;40315;48.620;9.828;2023-01-25T10:40:20;15.73;;;7.67;;
54408;SDS011;40315;48.620;9.828;2023-01-25T10:42:56;15.90;;;7.67;;
54408;SDS011;40315;48.620;9.828;2023-01-25T10:45:27;17.17;;;8.03;;
54408;SDS011;40315;48.620;9.828;2023-01-25T10:47:55;17.87;;;8.27;;
54408;SDS011;40315;48.620;9.828;2023-01-25T10:50:49;16.70;;;8.43;;
54408;SDS011;40315;48.620;9.828;2023-01-25T10:55:57;14.90;;;7.47;;
54408;SDS011;40315;48.620;9.828;2023-01-25T10:58:43;17.50;;;7.97;;
54408;SDS011;40315;48.620;9.828;2023-01-25T11:01:11;15.80;;;7.57;;
54408;SDS011;40315;48.620;9.828;2023-01-25T11:03:49;15.30;;;7.40;;
54408;SDS011;40315;48.620;9.828;2023-01-25T11:06:27;15.07;;;7.63;;
54408;SDS011;40315;48.620;9.828;2023-01-25T11:08:55;14.87;;;7.40;;
54408;SDS011;40315;48.620;9.828;2023-01-25T11:11:23;25.20;;;13.03;;
54408;SDS011;40315;48.620;9.828;2023-01-25T11:13:53;21.17;;;10.43;;
54408;SDS011;40315;48.620;9.828;2023-01-25T11:16:28;17.47;;;8.83;;
54408;SDS011;40315;48.620;9.828;2023-01-25T11:19:01;15.27;;;7.37;;
54408;SDS011;40315;48.620;9.828;2023-01-25T11:21:49;16.57;;;7.43;;
54408;SDS011;40315;48.620;9.828;2023-01-25T11:24:17;15.57;;;7.83;;
54408;SDS011;40315;48.620;9.828;2023-01-25T11:26:44;14.60;;;7.57;;
54408;SDS011;40315;48.620;9.828;2023-01-25T11:29:14;14.43;;;7.20;;
54408;SDS011;40315;48.620;9.828;2023-01-25T11:31:43;14.37;;;7.20;;
54408;SDS011;40315;48.620;9.828;2023-01-25T11:34:12;14.67;;;6.83;;
54408;SDS011;40315;48.620;9.828;2023-01-25T11:36:52;16.27;;;7.93;;
54408;SDS011;40315;48.620;9.828;2023-01-25T11:39:36;16.67;;;8.60;;
54408;SDS011;40315;48.620;9.828;2023-01-25T11:42:20;15.57;;;7.90;;
54408;SDS011;40315;48.620;9.828;2023-01-25T11:45:02;16.83;;;10.73;;
54408;SDS011;40315;48.620;9.828;2023-01-25T11:47:53;18.07;;;11.97;;
54408;SDS011;40315;48.620;9.828;2023-01-25T11:50:32;18.73;;;9.73;;
54408;SDS011;40315;48.620;9.828;2023-01-25T11:56:00;15.90;;;7.87;;
54408;SDS011;40315;48.620;9.828;2023-01-25T11:58:36;16.73;;;7.93;;
54408;SDS011;40315;48.620;9.828;2023-01-25T12:01:16;15.33;;;7.73;;
54408;SDS011;40315;48.620;9.828;2023-01-25T12:04:05;18.07;;;8.63;;
54408;SDS011;40315;48.620;9.828;2023-01-25T12:06:55;15.67;;;7.53;;
54408;SDS011;40315;48.620;9.828;2023-01-25T12:09:31;14.37;;;6.93;;
54408;SDS011;40315;48.620;9.828;2023-01-25T12:12:11;14.47;;;7.80;;
54408;SDS011;40315;48.620;9.828;2023-01-25T12:14:50;16.90;;;8.13;;
54408;SDS011;40315;48.620;9.828;2023-01-25T12:17:32;15.13;;;7.30;;
54408;SDS011;40315;48.620;9.828;2023-01-25T12:20:18;17.48;;;8.23;;
54408;SDS011;40315;48.620;9.828;2023-01-25T12:23:19;14.07;;;7.88;;
54408;SDS011;40315;48.620;9.828;2023-01-25T12:26:02;15.85;;;7.40;;
54408;SDS011;40315;48.620;9.828;2023-01-25T12:28:35;14.35;;;6.85;;
54408;SDS011;40315;48.620;9.828;2023-01-25T12:31:11;14.40;;;7.33;;
54408;SDS011;40315;48.620;9.828;2023-01-25T12:33:45;14.90;;;8.23;;
54408;SDS011;40315;48.620;9.828;2023-01-25T12:36:17;18.67;;;8.17;;
54408;SDS011;40315;48.620;9.828;2023-01-25T12:38:49;17.67;;;8.07;;
54408;SDS011;40315;48.620;9.828;2023-01-25T12:41:24;17.40;;;7.87;;
54408;SDS011;40315;48.620;9.828;2023-01-25T12:43:57;15.47;;;7.23;;
54408;SDS011;40315;48.620;9.828;2023-01-25T12:46:36;18.33;;;8.13;;
54408;SDS011;40315;48.620;9.828;2023-01-25T12:49:07;13.77;;;7.00;;
54408;SDS011;40315;48.620;9.828;2023-01-25T12:51:42;14.47;;;6.90;;
54408;SDS011;40315;48.620;9.828;2023-01-25T12:54:13;14.60;;;7.30;;
54408;SDS011;40315;48.620;9.828;2023-01-25T12:56:46;15.20;;;7.37;;
54408;SDS011;40315;48.620;9.828;2023-01-25T12:59:22;17.07;;;7.80;;
54408;SDS011;40315;48.620;9.828;2023-01-25T13:01:55;12.97;;;6.83;;
54408;SDS011;40315;48.620;9.828;2023-01-25T13:04:41;13.37;;;7.33;;
54408;SDS011;40315;48.620;9.828;2023-01-25T13:07:21;12.37;;;6.80;;
54408;SDS011;40315;48.620;9.828;2023-01-25T13:09:55;10.63;;;5.53;;
54408;SDS011;40315;48.620;9.828;2023-01-25T13:12:25;13.30;;;6.83;;
54408;SDS011;40315;48.620;9.828;2023-01-25T13:14:54;12.40;;;5.97;;
54408;SDS011;40315;48.620;9.828;2023-01-25T13:17:28;11.27;;;5.83;;
54408;SDS011;40315;48.620;9.828;2023-01-25T13:20:00;13.50;;;6.83;;
54408;SDS011;40315;48.620;9.828;2023-01-25T13:25:23;13.60;;;7.30;;
54408;SDS011;40315;48.620;9.828;2023-01-25T13:30:58;14.97;;;6.37;;
54408;SDS011;40315;48.620;9.828;2023-01-25T13:33:34;15.00;;;6.70;;
54408;SDS011;40315;48.620;9.828;2023-01-25T13:42:17;15.70;;;6.30;;
54408;SDS011;40315;48.620;9.828;2023-01-25T13:44:50;13.97;;;6.30;;
54408;SDS011;40315;48.620;9.828;2023-01-25T13:47:20;13.93;;;6.33;;
54408;SDS011;40315;48.620;9.828;2023-01-25T13:49:53;13.37;;;6.53;;
54408;SDS011;40315;48.620;9.828;2023-01-25T13:52:27;12.57;;;6.40;;
54408;SDS011;40315;48.620;9.828;2023-01-25T13:54:57;11.00;;;5.87;;
54408;SDS011;40315;48.620;9.828;2023-01-25T13:57:25;13.17;;;6.13;;
54408;SDS011;40315;48.620;9.828;2023-01-25T13:59:57;11.10;;;6.00;;
54408;SDS011;40315;48.620;9.828;2023-01-25T14:02:25;11.60;;;5.50;;
54408;SDS011;40315;48.620;9.828;2023-01-25T14:04:53;14.13;;;6.80;;
54408;SDS011;40315;48.620;9.828;2023-01-25T14:07:21;14.97;;;6.97;;
54408;SDS011;40315;48.620;9.828;2023-01-25T14:09:56;13.93;;;5.87;;
54408;SDS011;40315;48.620;9.828;2023-01-25T14:12:29;14.50;;;7.30;;
54408;SDS011;40315;48.620;9.828;2023-01-25T14:15:17;11.77;;;5.93;;
54408;SDS011;40315;48.620;9.828;2023-01-25T14:20:29;8.07;;;5.10;;
54408;SDS011;40315;48.620;9.828;2023-01-25T14:22:57;12.47;;;5.47;;
54408;SDS011;40315;48.620;9.828;2023-01-25T14:25:27;11.73;;;5.93;;
54408;SDS011;40315;48.620;9.828;2023-01-25T14:27:55;13.83;;;6.87;;
54408;SDS011;40315;48.620;9.828;2023-01-25T14:30:26;11.10;;;6.17;;
54408;SDS011;40315;48.620;9.828;2023-01-25T14:32:54;12.50;;;6.00;;
54408;SDS011;40315;48.620;9.828;2023-01-25T14:35:36;12.73;;;6.30;;
54408;SDS011;40315;48.620;9.828;2023-01-25T14:38:16;13.30;;;6.30;;
54408;SDS011;40315;48.620;9.828;2023-01-25T14:41:06;12.83;;;6.10;;
54408;SDS011;40315;48.620;9.828;2023-01-25T14:43:38;11.40;;;6.00;;
54408;SDS011;40315;48.620;9.828;2023-01-25T14:46:19;21.60;;;11.10;;
54408;SDS011;40315;48.620;9.828;2023-01-25T14:48:47;13.90;;;7.40;;
54408;SDS011;40315;48.620;9.828;2023-01-25T14:51:18;31.37;;;13.83;;
54408;SDS011;40315;48.620;9.828;2023-01-25T14:53:54;16.10;;;7.40;;
54408;SDS011;40315;48.620;9.828;2023-01-25T14:56:39;13.30;;;6.53;;
54408;SDS011;40315;48.620;9.828;2023-01-25T14:59:16;15.47;;;7.10;;
54408;SDS011;40315;48.620;9.828;2023-01-25T15:01:49;12.97;;;6.70;;
54408;SDS011;40315;48.620;9.828;2023-01-25T15:04:18;12.80;;;6.03;;
54408;SDS011;40315;48.620;9.828;2023-01-25T15:06:48;12.03;;;6.00;;
54408;SDS011;40315;48.620;9.828;2023-01-25T15:09:33;14.00;;;6.47;;
54408;SDS011;40315;48.620;9.828;2023-01-25T15:12:04;13.23;;;6.30;;
54408;SDS011;40315;48.620;9.828;2023-01-25T15:14:48;13.37;;;6.40;;
54408;SDS011;40315;48.620;9.828;2023-01-25T15:17:35;11.77;;;6.70;;
54408;SDS011;40315;48.620;9.828;2023-01-25T15:22:51;11.63;;;6.10;;
54408;SDS011;40315;48.620;9.828;2023-01-25T15:25:21;12.17;;;6.17;;
54408;SDS011;40315;48.620;9.828;2023-01-25T15:27:49;11.17;;;5.77;;
54408;SDS011;40315;48.620;9.828;2023-01-25T15:30:17;11.80;;;6.23;;
54408;SDS011;40315;48.620;9.828;2023-01-25T15:32:44;13.17;;;6.20;;
54408;SDS011;40315;48.620;9.828;2023-01-25T15:35:12;11.30;;;5.80;;
54408;SDS011;40315;48.620;9.828;2023-01-25T15:37:40;14.43;;;7.23;;
54408;SDS011;40315;48.620;9.828;2023-01-25T15:40:07;14.07;;;7.70;;
54408;SDS011;40315;48.620;9.828;2023-01-25T15:42:36;10.47;;;6.57;;
54408;SDS011;40315;48.620;9.828;2023-01-25T15:45:06;12.57;;;6.73;;
54408;SDS011;40315;48.620;9.828;2023-01-25T15:47:34;12.93;;;6.47;;
54408;SDS011;40315;48.620;9.828;2023-01-25T15:50:02;11.73;;;7.03;;
54408;SDS011;40315;48.620;9.828;2023-01-25T15:52:29;12.73;;;6.80;;